Home   Weather   Russia   Volgograd   Past weeks
Flag for Russia

Past Weather in Volgograd, Russia — Yesterday and Last 2 Weeks

Currently: 52 °F. Sunny. (Weather station: Volgograd Airport, Russia). See more current weather

Past Weather in Volgograd — Graph

°F

Volgograd Temperature Yesterday

Maximum temperature yesterday: 75 °F (at 1:00 pm)
Minimum temperature yesterday: 45 °F (at 3:00 am)
Average temperature yesterday: 59 °F

High & Low Weather Summary for the Past Weeks

 TemperatureHumidityPressure
High77 °F (Apr 12, 1:00 pm)100% (Apr 5, 7:00 pm)30.51 "Hg (Apr 5, 7:00 pm)
Low30 °F (Apr 7, 5:00 am)12% (Apr 13, 2:30 pm)29.45 "Hg (Apr 6, 4:30 am)
Average48 °F68%29.99 "Hg
* Reported Mar 31 7:30 am — Apr 15 7:00 am, Volgograd. Weather by CustomWeather, © 2021

Note: Actual official high and low records may vary slightly from our data, if they occured in-between our weather recording intervals... More about our weather records

Volgograd Weather History for the Previous 24 Hours

Scroll right to see more
 ConditionsComfort  
Time TempWeatherWind HumidityBarometerVisibility
7:00 am
Thu, Apr 15
50 °FSunny.8 mph76%29.95 "Hg10 mi
6:30 am46 °FSunny.8 mph82%29.95 "Hg10 mi
6:00 am45 °FSunny.8 mph87%29.95 "Hg10 mi
5:30 am45 °FSunny.6 mph87%29.95 "Hg10 mi
5:00 am45 °FSunny.6 mph87%29.95 "Hg10 mi
4:30 am46 °FPassing clouds.3 mph82%29.95 "HgN/A
4:00 am46 °FClear.6 mph82%29.95 "Hg10 mi
3:30 am46 °FClear.3 mph82%29.98 "Hg10 mi
3:00 am48 °FClear.3 mph82%29.98 "Hg10 mi
2:30 am48 °FClear.6 mph82%29.98 "Hg10 mi
2:00 am48 °FClear.8 mph82%29.98 "Hg10 mi
1:30 am50 °FClear.10 mph71%29.98 "Hg10 mi
1:00 am52 °FClear.10 mph67%29.98 "Hg10 mi
12:30 am54 °FPassing clouds.10 mph63%29.98 "HgN/A
12:00 am52 °FClear.10 mph67%29.98 "Hg10 mi
11:30 pm
Wed, Apr 14
54 °FClear.13 mph63%29.98 "Hg10 mi
10:30 pm54 °FClear.10 mph47%29.98 "Hg10 mi
10:00 pm52 °FClear.8 mph58%29.98 "Hg10 mi
9:30 pm55 °FClear.3 mph44%29.98 "Hg10 mi
9:00 pm55 °FClear.6 mph44%29.98 "Hg10 mi
8:30 pm57 °FClear.6 mph41%30.01 "Hg10 mi
8:00 pm57 °FClear.6 mph44%30.01 "Hg10 mi
7:30 pm61 °FClear.6 mph39%30.01 "Hg10 mi
7:00 pm64 °FClear.3 mph34%29.98 "Hg10 mi
6:30 pm64 °FPassing clouds.6 mph32%29.98 "HgN/A
6:00 pm70 °FPassing clouds.8 mph21%29.98 "HgN/A
5:30 pm72 °FSunny.13 mph20%29.98 "Hg10 mi
5:00 pm75 °FSunny.15 mph16%29.98 "Hg10 mi
4:30 pm73 °FSunny.15 mph19%30.01 "Hg10 mi
4:00 pm73 °FSunny.13 mph20%30.01 "Hg10 mi
3:30 pm75 °FSunny.15 mph16%30.01 "Hg10 mi
3:00 pm73 °FSunny.15 mph16%30.01 "Hg10 mi
2:30 pm73 °FSunny.17 mph16%30.01 "Hg10 mi
2:00 pm75 °FPassing clouds.15 mph15%30.04 "HgN/A
1:30 pm73 °FSunny.17 mph16%30.04 "Hg10 mi
1:00 pm75 °FSunny.17 mph15%30.04 "Hg10 mi
12:30 pm72 °FSunny.17 mph23%30.04 "Hg10 mi
12:00 pm72 °FSunny.20 mph23%30.07 "Hg10 mi
11:30 am70 °FSunny.20 mph25%30.07 "Hg10 mi
10:30 am66 °FSunny.17 mph26%30.07 "Hg10 mi
10:00 am64 °FSunny.15 mph30%30.09 "Hg10 mi
9:30 am63 °FSunny.15 mph32%30.09 "Hg10 mi
9:00 am61 °FSunny.15 mph31%30.09 "Hg10 mi
8:30 am57 °FSunny.15 mph39%30.09 "Hg10 mi
8:00 am54 °FSunny.15 mph44%30.09 "Hg10 mi
Weather by CustomWeather, © 2021

See weather overview